createdAt,value
2023-04-26T00:00:59.404Z,2.00
2023-04-26T00:03:48.554Z,1.90
2023-04-26T00:06:21.172Z,1.95
2023-04-26T00:08:58.980Z,1.83
2023-04-26T00:11:29.897Z,2.00
2023-04-26T00:14:01.235Z,2.10
2023-04-26T00:16:35.390Z,1.95
2023-04-26T00:19:16.830Z,1.80
2023-04-26T00:21:53.310Z,1.70
2023-04-26T00:24:32.587Z,1.83
2023-04-26T00:30:27.979Z,1.70
2023-04-26T00:32:58.129Z,1.98
2023-04-26T00:35:31.337Z,1.95
2023-04-26T00:38:13.587Z,1.77
2023-04-26T00:41:40.253Z,1.83
2023-04-26T00:44:11.281Z,1.63
2023-04-26T00:46:49.641Z,1.95
2023-04-26T00:49:29.548Z,1.83
2023-04-26T00:52:07.555Z,1.80
2023-04-26T00:55:01.853Z,1.80
2023-04-26T00:57:42.888Z,1.90
2023-04-26T01:00:27.271Z,2.00
2023-04-26T01:03:01.531Z,2.15
2023-04-26T01:05:41.613Z,1.90
2023-04-26T01:08:19.248Z,1.92
2023-04-26T01:10:58.592Z,2.05
2023-04-26T01:13:35.774Z,2.10
2023-04-26T01:16:12.783Z,1.98
2023-04-26T01:18:55.799Z,2.25
2023-04-26T01:21:27.167Z,2.03
2023-04-26T01:23:59.775Z,1.93
2023-04-26T01:26:35.197Z,1.92
2023-04-26T01:29:21.122Z,2.00
2023-04-26T01:31:53.349Z,2.00
2023-04-26T01:34:25.496Z,2.10
2023-04-26T01:37:00.091Z,2.10
2023-04-26T01:39:33.202Z,2.10
2023-04-26T01:42:07.546Z,2.10
2023-04-26T01:44:39.963Z,2.10
2023-04-26T01:47:13.929Z,2.10
2023-04-26T01:49:48.969Z,2.00
2023-04-26T01:52:20.993Z,2.05
2023-04-26T01:54:52.797Z,2.38
2023-04-26T01:57:23.700Z,2.20
2023-04-26T01:59:55.569Z,2.10
2023-04-26T02:02:27.989Z,2.20
2023-04-26T02:04:57.358Z,2.30
2023-04-26T02:07:32.190Z,2.28
2023-04-26T02:10:02.996Z,2.30
2023-04-26T02:12:32.782Z,1.90
2023-04-26T02:15:03.959Z,2.10
2023-04-26T02:17:35.204Z,2.20
2023-04-26T02:20:07.290Z,2.20
2023-04-26T02:22:43.048Z,2.10
2023-04-26T02:25:18.608Z,2.17
2023-04-26T02:27:48.845Z,1.83
2023-04-26T02:30:42.464Z,1.90
2023-04-26T02:33:19.798Z,2.10
2023-04-26T02:35:50.097Z,1.92
2023-04-26T02:38:23.214Z,2.15
2023-04-26T02:41:05.578Z,2.10
2023-04-26T02:43:39.588Z,2.10
2023-04-26T02:46:13.890Z,2.03
2023-04-26T02:48:57.003Z,1.75
2023-04-26T02:51:28.546Z,1.80
2023-04-26T02:54:01.623Z,1.95
2023-04-26T02:56:35.899Z,2.00
2023-04-26T02:59:09.958Z,2.00
2023-04-26T03:01:47.041Z,1.85
2023-04-26T03:04:21.080Z,1.90
2023-04-26T03:07:08.007Z,2.10
2023-04-26T03:09:51.390Z,1.98
2023-04-26T03:12:23.483Z,1.90
2023-04-26T03:14:55.470Z,1.88
2023-04-26T03:17:29.227Z,1.80
2023-04-26T03:20:02.680Z,1.90
2023-04-26T03:22:35.503Z,1.83
2023-04-26T03:25:09.441Z,1.88
2023-04-26T03:27:48.587Z,2.00
2023-04-26T03:30:24.170Z,1.80
2023-04-26T03:32:59.933Z,2.00
2023-04-26T03:35:32.089Z,1.98
2023-04-26T03:38:04.385Z,1.90
2023-04-26T03:40:35.389Z,1.92
2023-04-26T03:43:08.314Z,2.00
2023-04-26T03:45:39.386Z,1.85
2023-04-26T03:48:12.836Z,2.20
2023-04-26T03:50:52.652Z,1.90
2023-04-26T03:53:23.858Z,1.80
2023-04-26T03:55:59.798Z,2.17
2023-04-26T03:58:47.497Z,1.73
2023-04-26T04:01:23.351Z,2.15
2023-04-26T04:03:55.839Z,2.20
2023-04-26T04:06:25.849Z,1.92
2023-04-26T04:08:55.323Z,2.10
2023-04-26T04:11:24.900Z,2.00
2023-04-26T04:13:54.083Z,2.10
2023-04-26T04:16:24.526Z,2.10
2023-04-26T04:18:53.479Z,1.95
2023-04-26T04:21:22.877Z,1.95
2023-04-26T04:23:51.672Z,1.90
2023-04-26T04:26:21.572Z,1.95
2023-04-26T04:28:52.814Z,2.10
2023-04-26T04:31:24.117Z,2.22
2023-04-26T04:33:52.849Z,2.00
2023-04-26T04:36:22.696Z,2.03
2023-04-26T04:38:52.374Z,2.10
2023-04-26T04:41:23.577Z,2.00
2023-04-26T04:43:56.674Z,1.90
2023-04-26T04:46:26.656Z,1.95
2023-04-26T04:48:55.897Z,2.10
2023-04-26T04:51:24.745Z,1.90
2023-04-26T04:53:53.376Z,2.10
2023-04-26T04:56:23.310Z,2.00
2023-04-26T04:58:53.341Z,2.05
2023-04-26T05:01:23.491Z,1.90
2023-04-26T05:03:56.367Z,2.10
2023-04-26T05:06:27.281Z,2.10
2023-04-26T05:08:59.472Z,2.20
2023-04-26T05:11:28.665Z,2.00
2023-04-26T05:13:57.181Z,2.10
2023-04-26T05:16:27.092Z,2.10
2023-04-26T05:18:56.404Z,2.10
2023-04-26T05:21:25.221Z,2.10
2023-04-26T05:23:54.300Z,1.90
2023-04-26T05:26:24.196Z,1.90
2023-04-26T05:29:16.558Z,2.00
2023-04-26T05:32:06.745Z,1.92
2023-04-26T05:34:42.956Z,2.03
2023-04-26T05:37:17.799Z,2.00
2023-04-26T05:39:50.926Z,2.00
2023-04-26T05:42:20.364Z,2.10
2023-04-26T05:44:49.307Z,2.05
2023-04-26T05:47:18.916Z,2.20
2023-04-26T05:49:47.823Z,2.20
2023-04-26T05:52:17.755Z,2.20
2023-04-26T05:54:47.928Z,1.95
2023-04-26T05:57:18.984Z,2.03
2023-04-26T05:59:48.773Z,2.08
2023-04-26T06:02:19.110Z,2.13
2023-04-26T06:04:48.516Z,1.95
2023-04-26T06:07:19.168Z,1.85
2023-04-26T06:09:49.945Z,2.25
2023-04-26T06:12:19.126Z,1.90
2023-04-26T06:14:48.631Z,2.10
2023-04-26T06:17:23.161Z,2.40
2023-04-26T06:19:52.489Z,2.20
2023-04-26T06:22:21.006Z,2.17
2023-04-26T06:24:52.403Z,2.17
2023-04-26T06:27:21.049Z,2.13
2023-04-26T06:29:53.111Z,2.00
2023-04-26T06:32:22.736Z,2.00
2023-04-26T06:34:52.053Z,2.00
2023-04-26T06:37:21.001Z,1.90
2023-04-26T06:39:51.381Z,1.95
2023-04-26T06:42:21.085Z,2.10
2023-04-26T06:45:11.141Z,2.05
2023-04-26T06:47:40.125Z,2.30
2023-04-26T06:50:09.462Z,2.03
2023-04-26T06:52:39.140Z,2.00
2023-04-26T06:55:08.398Z,2.10
2023-04-26T06:57:37.419Z,1.98
2023-04-26T07:00:07.943Z,2.15
2023-04-26T07:02:36.930Z,2.10
2023-04-26T07:05:07.005Z,1.98
2023-04-26T07:07:36.777Z,2.00
2023-04-26T07:10:06.856Z,1.95
2023-04-26T07:12:39.273Z,2.10
2023-04-26T07:15:10.203Z,2.13
2023-04-26T07:17:40.140Z,2.10
2023-04-26T07:20:09.679Z,2.10
2023-04-26T07:22:39.162Z,2.20
2023-04-26T07:25:09.614Z,2.10
2023-04-26T07:27:39.244Z,1.92
2023-04-26T07:30:09.503Z,2.20
2023-04-26T07:32:38.843Z,2.00
2023-04-26T07:35:09.765Z,1.92
2023-04-26T07:37:39.155Z,2.08
2023-04-26T07:40:11.217Z,2.03
2023-04-26T07:42:40.613Z,1.90
2023-04-26T07:45:10.809Z,2.05
2023-04-26T07:47:40.162Z,2.10
2023-04-26T07:50:09.941Z,2.25
2023-04-26T07:52:39.949Z,2.10
2023-04-26T07:55:10.769Z,2.25
2023-04-26T07:57:40.238Z,2.17
2023-04-26T08:02:45.607Z,2.00
2023-04-26T08:05:19.202Z,2.00
2023-04-26T08:07:48.301Z,2.00
2023-04-26T08:10:18.347Z,1.98
2023-04-26T08:12:47.919Z,2.28
2023-04-26T08:15:19.739Z,2.20
2023-04-26T08:17:49.803Z,2.00
2023-04-26T08:20:26.806Z,2.08
2023-04-26T08:23:05.493Z,2.05
2023-04-26T08:25:37.630Z,2.08
2023-04-26T08:30:39.244Z,2.05
2023-04-26T08:33:08.258Z,1.92
2023-04-26T08:35:37.326Z,2.03
2023-04-26T08:38:06.215Z,2.03
2023-04-26T08:40:38.247Z,2.10
2023-04-26T08:43:22.679Z,2.28
2023-04-26T08:45:59.729Z,2.03
2023-04-26T08:48:41.485Z,2.20
2023-04-26T08:51:33.601Z,2.08
2023-04-26T08:54:09.986Z,2.35
2023-04-26T08:56:47.119Z,2.00
2023-04-26T08:59:19.184Z,2.22
2023-04-26T09:01:56.306Z,2.10
2023-04-26T09:04:26.329Z,2.20
2023-04-26T09:07:05.274Z,2.30
2023-04-26T09:09:43.211Z,2.10
2023-04-26T09:12:24.875Z,2.20
2023-04-26T09:14:57.882Z,2.15
2023-04-26T09:17:34.985Z,2.08
2023-04-26T09:20:36.803Z,2.20
2023-04-26T09:23:23.211Z,1.90
2023-04-26T09:25:53.672Z,2.08
2023-04-26T09:28:29.362Z,2.20
2023-04-26T09:31:03.813Z,2.22
2023-04-26T09:33:34.122Z,2.35
2023-04-26T09:36:21.118Z,2.30
2023-04-26T09:38:52.909Z,2.40
2023-04-26T09:41:24.327Z,2.00
2023-04-26T09:43:55.509Z,2.08
2023-04-26T09:46:26.416Z,2.28
2023-04-26T09:49:05.450Z,2.10
2023-04-26T09:51:39.647Z,2.38
2023-04-26T09:54:11.215Z,2.08
2023-04-26T09:56:41.704Z,2.05
2023-04-26T09:59:15.831Z,2.33
2023-04-26T10:01:47.803Z,2.17
2023-04-26T10:04:23.055Z,2.20
2023-04-26T10:06:54.132Z,2.22
2023-04-26T10:09:29.248Z,2.10
2023-04-26T10:12:00.682Z,2.03
2023-04-26T10:14:32.473Z,2.20
2023-04-26T10:17:09.069Z,2.10
2023-04-26T10:19:48.800Z,1.90
2023-04-26T10:22:29.346Z,1.80
2023-04-26T10:25:35.759Z,2.00
2023-04-26T10:28:54.876Z,1.92
2023-04-26T10:31:52.506Z,2.05
2023-04-26T10:34:29.711Z,2.05
2023-04-26T10:37:19.150Z,2.20
2023-04-26T10:39:51.424Z,2.25
2023-04-26T10:42:26.665Z,2.35
2023-04-26T10:45:01.620Z,2.22
2023-04-26T10:47:40.981Z,2.30
2023-04-26T10:50:19.767Z,2.40
2023-04-26T10:53:05.363Z,2.10
2023-04-26T10:56:29.872Z,2.03
2023-04-26T10:59:39.947Z,1.93
2023-04-26T11:02:20.662Z,1.80
2023-04-26T11:04:53.680Z,2.17
2023-04-26T11:07:43.529Z,2.50
2023-04-26T11:10:25.511Z,2.30
2023-04-26T11:13:08.449Z,2.33
2023-04-26T11:15:42.250Z,2.20
2023-04-26T11:18:23.299Z,2.30
2023-04-26T11:21:04.264Z,2.10
2023-04-26T11:23:41.040Z,2.00
2023-04-26T11:26:13.655Z,2.20
2023-04-26T11:28:57.228Z,2.20
2023-04-26T11:31:33.219Z,2.05
2023-04-26T11:34:08.344Z,2.22
2023-04-26T11:37:02.278Z,2.00
2023-04-26T11:39:35.313Z,2.03
2023-04-26T11:42:13.223Z,2.20
2023-04-26T11:44:48.016Z,2.30
2023-04-26T11:47:35.244Z,2.22
2023-04-26T11:50:13.038Z,2.30
2023-04-26T11:52:57.488Z,2.28
2023-04-26T11:55:33.751Z,2.30
2023-04-26T11:58:12.092Z,2.63
2023-04-26T12:01:00.906Z,2.70
2023-04-26T12:03:36.141Z,2.70
2023-04-26T12:06:05.443Z,2.40
2023-04-26T12:08:35.310Z,2.60
2023-04-26T12:11:04.644Z,2.47
2023-04-26T12:13:33.524Z,2.70
2023-04-26T12:16:22.269Z,2.65
2023-04-26T12:18:57.631Z,2.33
2023-04-26T12:21:30.374Z,2.40
2023-04-26T12:23:59.118Z,2.60
2023-04-26T12:26:46.492Z,2.45
2023-04-26T12:29:15.559Z,2.30
2023-04-26T12:31:47.647Z,2.55
2023-04-26T12:34:17.051Z,2.42
2023-04-26T12:36:47.060Z,2.75
2023-04-26T12:39:17.378Z,2.67
2023-04-26T12:41:48.515Z,3.08
2023-04-26T12:44:19.639Z,2.88
2023-04-26T12:46:52.229Z,2.92
2023-04-26T12:49:21.371Z,3.00
2023-04-26T12:51:52.753Z,2.75
2023-04-26T12:54:21.013Z,2.90
2023-04-26T12:56:50.252Z,2.78
2023-04-26T12:59:19.217Z,3.00
2023-04-26T13:01:48.248Z,2.90
2023-04-26T13:04:17.740Z,3.28
2023-04-26T13:06:47.516Z,3.00
2023-04-26T13:09:17.128Z,2.78
2023-04-26T13:11:46.609Z,2.97
2023-04-26T13:14:15.594Z,2.30
2023-04-26T13:16:44.903Z,2.78
2023-04-26T13:19:13.276Z,2.53
2023-04-26T13:21:43.262Z,2.63
2023-04-26T13:24:12.640Z,2.58
2023-04-26T13:26:41.166Z,2.80
2023-04-26T13:29:09.904Z,2.58
2023-04-26T13:31:39.392Z,2.40
2023-04-26T13:34:08.483Z,2.30
2023-04-26T13:36:37.359Z,2.40
2023-04-26T13:39:08.882Z,2.30
2023-04-26T13:41:39.214Z,2.45
2023-04-26T13:44:09.408Z,2.40
2023-04-26T13:46:38.766Z,2.28
2023-04-26T13:49:11.052Z,2.40
2023-04-26T13:51:40.551Z,2.13
2023-04-26T13:54:12.685Z,2.30
2023-04-26T13:56:57.450Z,2.10
2023-04-26T13:59:32.293Z,2.15
2023-04-26T14:02:01.499Z,2.10
2023-04-26T14:04:31.510Z,2.70
2023-04-26T14:07:00.736Z,2.30
2023-04-26T14:09:29.316Z,2.40
2023-04-26T14:12:07.879Z,2.58
2023-04-26T14:14:39.434Z,2.10
2023-04-26T14:17:08.299Z,2.50
2023-04-26T14:19:40.253Z,2.33
2023-04-26T14:22:13.369Z,2.45
2023-04-26T14:24:45.021Z,2.30
2023-04-26T14:27:13.969Z,2.30
2023-04-26T14:29:45.222Z,2.22
2023-04-26T14:32:16.050Z,2.28
2023-04-26T14:34:48.041Z,2.50
2023-04-26T14:37:23.122Z,2.38
2023-04-26T14:39:52.294Z,2.40
2023-04-26T14:42:21.598Z,2.25
2023-04-26T14:44:50.898Z,2.35
2023-04-26T14:47:37.572Z,2.40
2023-04-26T14:50:14.594Z,2.38
2023-04-26T14:52:45.009Z,2.20
2023-04-26T14:55:24.816Z,2.30
2023-04-26T14:57:55.232Z,2.25
2023-04-26T15:00:26.376Z,2.38
2023-04-26T15:02:55.529Z,2.53
2023-04-26T15:05:25.113Z,2.50
2023-04-26T15:07:54.627Z,2.40
2023-04-26T15:10:23.299Z,2.40
2023-04-26T15:12:52.916Z,2.72
2023-04-26T15:15:47.113Z,2.65
2023-04-26T15:19:05.186Z,2.67
2023-04-26T15:21:35.277Z,2.35
2023-04-26T15:24:30.340Z,2.30
2023-04-26T15:27:46.746Z,2.40
2023-04-26T15:33:31.309Z,2.67
2023-04-26T15:35:59.861Z,2.40
2023-04-26T15:39:48.470Z,2.30
2023-04-26T15:42:33.855Z,2.80
2023-04-26T15:47:59.236Z,2.25
2023-04-26T15:50:52.320Z,2.55
2023-04-26T15:53:24.508Z,2.40
2023-04-26T15:55:53.282Z,2.28
2023-04-26T15:58:49.300Z,2.60
2023-04-26T16:01:22.206Z,2.17
2023-04-26T16:04:03.650Z,2.60
2023-04-26T16:06:37.085Z,2.20
2023-04-26T16:09:24.813Z,2.28
2023-04-26T16:11:54.840Z,2.47
2023-04-26T16:14:23.118Z,2.22
2023-04-26T16:16:52.570Z,2.33
2023-04-26T16:19:21.445Z,2.40
2023-04-26T16:21:51.586Z,2.30
2023-04-26T16:24:21.258Z,2.35
2023-04-26T16:26:49.488Z,2.30
2023-04-26T16:29:19.685Z,2.35
2023-04-26T16:31:49.227Z,2.42
2023-04-26T16:34:21.236Z,2.20
2023-04-26T16:37:09.705Z,2.22
2023-04-26T16:39:59.405Z,2.20
2023-04-26T16:42:34.072Z,2.22
2023-04-26T16:45:16.064Z,2.40
2023-04-26T16:47:52.562Z,2.70
2023-04-26T16:50:21.659Z,2.35
2023-04-26T16:52:50.759Z,2.40
2023-04-26T16:55:19.635Z,2.70
2023-04-26T16:57:48.955Z,2.50
2023-04-26T17:00:19.150Z,2.50
2023-04-26T17:02:51.135Z,2.42
2023-04-26T17:05:20.486Z,2.15
2023-04-26T17:07:50.085Z,2.40
2023-04-26T17:10:19.898Z,2.35
2023-04-26T17:12:49.751Z,2.42
2023-04-26T17:15:19.027Z,2.60
2023-04-26T17:17:51.438Z,2.50
2023-04-26T17:20:20.366Z,2.50
2023-04-26T17:22:49.615Z,2.10
2023-04-26T17:25:19.464Z,2.20
2023-04-26T17:27:49.153Z,2.50
2023-04-26T17:30:19.902Z,2.30
2023-04-26T17:32:49.402Z,2.70
2023-04-26T17:35:19.024Z,2.40
2023-04-26T17:37:50.668Z,2.50
2023-04-26T17:40:20.317Z,2.35
2023-04-26T17:42:49.381Z,2.30
2023-04-26T17:45:18.533Z,2.67
2023-04-26T17:47:47.702Z,2.20
2023-04-26T17:50:18.447Z,2.40
2023-04-26T17:52:47.280Z,2.67
2023-04-26T17:55:17.762Z,2.42
2023-04-26T17:57:49.326Z,2.40
2023-04-26T18:00:20.586Z,2.60
2023-04-26T18:02:49.850Z,2.50
2023-04-26T18:05:19.648Z,2.58
2023-04-26T18:07:49.154Z,2.60
2023-04-26T18:10:18.897Z,2.50
2023-04-26T18:12:48.265Z,2.60
2023-04-26T18:15:18.143Z,2.47
2023-04-26T18:17:47.583Z,2.30
2023-04-26T18:20:17.353Z,2.45
2023-04-26T18:22:47.756Z,2.28
2023-04-26T18:25:17.819Z,2.53
2023-04-26T18:27:49.292Z,2.20
2023-04-26T18:30:19.349Z,2.47
2023-04-26T18:32:49.163Z,2.30
2023-04-26T18:35:18.663Z,2.33
2023-04-26T18:37:47.794Z,2.40
2023-04-26T18:40:29.950Z,2.38
2023-04-26T18:43:09.003Z,2.22
2023-04-26T18:45:39.723Z,2.42
2023-04-26T18:48:09.336Z,2.40
2023-04-26T18:50:37.892Z,2.47
2023-04-26T18:53:07.264Z,2.25
2023-04-26T18:55:39.737Z,2.30
2023-04-26T18:58:11.788Z,2.30
2023-04-26T19:00:42.196Z,2.10
2023-04-26T19:03:12.416Z,2.35
2023-04-26T19:05:45.290Z,2.10
2023-04-26T19:08:13.939Z,2.40
2023-04-26T19:10:45.139Z,2.58
2023-04-26T19:13:14.170Z,2.33
2023-04-26T19:15:43.367Z,2.20
2023-04-26T19:18:12.971Z,2.30
2023-04-26T19:20:43.684Z,2.33
2023-04-26T19:23:27.001Z,2.60
2023-04-26T19:26:01.757Z,2.50
2023-04-26T19:28:32.348Z,2.50
2023-04-26T19:31:02.457Z,2.20
2023-04-26T19:33:32.594Z,2.25
2023-04-26T19:36:01.855Z,2.20
2023-04-26T19:38:31.436Z,2.05
2023-04-26T19:41:01.727Z,2.47
2023-04-26T19:43:31.386Z,2.42
2023-04-26T19:46:00.287Z,2.40
2023-04-26T19:48:52.056Z,2.70
2023-04-26T19:51:22.113Z,2.15
2023-04-26T19:53:51.963Z,2.40
2023-04-26T19:56:21.427Z,2.45
2023-04-26T19:58:51.361Z,2.45
2023-04-26T20:01:21.489Z,2.60
2023-04-26T20:03:51.676Z,2.50
2023-04-26T20:06:21.563Z,2.40
2023-04-26T20:08:52.597Z,2.50
2023-04-26T20:11:21.562Z,2.33
2023-04-26T20:13:50.736Z,2.28
2023-04-26T20:16:20.007Z,2.33
2023-04-26T20:18:49.640Z,2.47
2023-04-26T20:21:18.339Z,2.30
2023-04-26T20:23:47.890Z,2.50
2023-04-26T20:26:17.283Z,2.30
2023-04-26T20:28:49.445Z,2.25
2023-04-26T20:31:19.802Z,2.45
2023-04-26T20:33:52.558Z,2.58
2023-04-26T20:36:22.884Z,2.33
2023-04-26T20:38:51.873Z,2.40
2023-04-26T20:41:21.938Z,2.40
2023-04-26T20:43:53.523Z,2.30
2023-04-26T20:46:24.696Z,2.42
2023-04-26T20:48:55.500Z,2.22
2023-04-26T20:51:25.516Z,1.98
2023-04-26T20:53:55.602Z,2.90
2023-04-26T20:56:24.801Z,2.53
2023-04-26T20:58:53.445Z,2.50
2023-04-26T21:01:23.602Z,2.30
2023-04-26T21:03:53.056Z,2.50
2023-04-26T21:06:21.996Z,2.50
2023-04-26T21:08:50.913Z,2.20
2023-04-26T21:11:20.474Z,2.70
2023-04-26T21:13:56.287Z,2.60
2023-04-26T21:16:25.411Z,2.08
2023-04-26T21:18:53.781Z,2.05
2023-04-26T21:21:23.178Z,2.40
2023-04-26T21:23:51.788Z,2.17
2023-04-26T21:26:21.367Z,2.05
2023-04-26T21:28:51.485Z,2.60
2023-04-26T21:31:29.169Z,2.10
2023-04-26T21:34:02.237Z,2.30
2023-04-26T21:36:48.573Z,2.35
2023-04-26T21:40:05.987Z,2.42
2023-04-26T21:42:51.396Z,2.22
2023-04-26T21:45:27.680Z,2.13
2023-04-26T21:47:56.754Z,2.50
2023-04-26T21:50:25.682Z,2.22
2023-04-26T21:52:54.592Z,2.20
2023-04-26T21:55:24.243Z,2.20
2023-04-26T21:57:57.260Z,2.30
2023-04-26T22:00:27.703Z,2.20
2023-04-26T22:02:56.991Z,2.10
2023-04-26T22:05:27.035Z,2.35
2023-04-26T22:07:56.359Z,2.20
2023-04-26T22:10:24.983Z,2.20
2023-04-26T22:12:53.531Z,2.25
2023-04-26T22:15:22.069Z,2.25
2023-04-26T22:17:51.324Z,2.08
2023-04-26T22:20:19.635Z,2.30
2023-04-26T22:22:48.161Z,2.20
2023-04-26T22:25:17.234Z,2.30
2023-04-26T22:27:46.206Z,2.30
2023-04-26T22:30:24.874Z,2.13
2023-04-26T22:32:58.151Z,2.22
2023-04-26T22:35:30.054Z,2.40
2023-04-26T22:38:01.833Z,2.28
2023-04-26T22:40:32.490Z,2.30
2023-04-26T22:43:01.303Z,2.03
2023-04-26T22:45:29.587Z,2.30
2023-04-26T22:47:57.902Z,2.30
2023-04-26T22:50:27.423Z,2.25
2023-04-26T22:52:57.713Z,2.30
2023-04-26T22:55:26.417Z,2.10
2023-04-26T22:57:56.936Z,2.25
2023-04-26T23:00:25.993Z,2.17
2023-04-26T23:02:55.281Z,2.20
2023-04-26T23:05:23.602Z,2.20
2023-04-26T23:07:53.095Z,2.13
2023-04-26T23:10:21.872Z,1.95
2023-04-26T23:12:51.393Z,2.08
2023-04-26T23:15:20.120Z,2.10
2023-04-26T23:17:49.214Z,2.10
2023-04-26T23:20:18.051Z,2.30
2023-04-26T23:22:47.295Z,2.10
2023-04-26T23:25:16.549Z,2.22
2023-04-26T23:27:46.010Z,1.88
2023-04-26T23:30:15.739Z,2.30
2023-04-26T23:32:45.103Z,2.35
2023-04-26T23:35:13.783Z,1.88
2023-04-26T23:37:43.238Z,2.28
2023-04-26T23:40:14.385Z,2.35
2023-04-26T23:42:43.308Z,2.65
2023-04-26T23:45:12.621Z,2.22
2023-04-26T23:47:48.674Z,2.35
2023-04-26T23:50:18.658Z,2.50
2023-04-26T23:52:47.628Z,2.13
2023-04-26T23:55:16.833Z,2.50
2023-04-26T23:57:45.835Z,2.47
